logo
Search for airport 
image banner adimage banner adimage banner ad
image banner ad

YCES - Ceres

Located in Ceres, Australia

ICAO - YCES, IATA -

Data provided by Airmate  

General information

Coordinates: S38°8'46" E144°15'42"
Elevation is 110 feet MSL.
Magnetic variation is 11° East
View others Airports in Tasmania

Operational data

Special qualification required
Current time UTC:
Current local time:
Weather at : YMAV - Avalon ( 22 km )
METAR: YMAV 131500Z AUTO 31003KT 9999 // OVC037 14/12 Q1023 RF00.0/000.0
TAF: TAF YMAV 131117Z 1312/1412 29004KT 9999 BKN025 FM131800 27005KT 9999 SCT025 BKN040
View NOTAMs / SUP AIP / TFR affecting this airport [VIEW]
Communications frequencies: [VIEW]

Runways:

RWY identifierQFULength (ft)Width (ft)SurfaceLDA (ft)
YCAVE00UNK
1800UNK
3600UNK

Airport contact information

Address: Ceres Australia

Satellite view of YCES